sensor_id;sensor_type;location;lat;lon;timestamp;pressure;altitude;pressure_sealevel;temperature;humidity
80837;BME280;70251;60.008;30.404;2023-08-24T00:00:55;100843.75;;;18.06;56.75
80837;BME280;70251;60.008;30.404;2023-08-24T00:03:21;100843.75;;;18.06;56.78
80837;BME280;70251;60.008;30.404;2023-08-24T00:05:48;100840.22;;;18.05;56.80
80837;BME280;70251;60.008;30.404;2023-08-24T00:08:14;100837.31;;;18.07;56.88
80837;BME280;70251;60.008;30.404;2023-08-24T00:10:39;100838.28;;;18.14;56.60
80837;BME280;70251;60.008;30.404;2023-08-24T00:13:08;100834.56;;;18.15;56.68
80837;BME280;70251;60.008;30.404;2023-08-24T00:15:34;100836.53;;;18.21;56.72
80837;BME280;70251;60.008;30.404;2023-08-24T00:18:01;100831.31;;;18.19;56.36
80837;BME280;70251;60.008;30.404;2023-08-24T00:20:27;100842.31;;;18.18;56.26
80837;BME280;70251;60.008;30.404;2023-08-24T00:22:52;100844.53;;;18.14;56.61
80837;BME280;70251;60.008;30.404;2023-08-24T00:25:18;100843.19;;;18.10;56.73
80837;BME280;70251;60.008;30.404;2023-08-24T00:27:45;100841.72;;;18.08;56.64
80837;BME280;70251;60.008;30.404;2023-08-24T00:30:11;100849.97;;;18.06;56.63
80837;BME280;70251;60.008;30.404;2023-08-24T00:32:36;100846.63;;;18.04;56.71
80837;BME280;70251;60.008;30.404;2023-08-24T00:35:03;100852.50;;;18.08;56.88
80837;BME280;70251;60.008;30.404;2023-08-24T00:37:31;100851.47;;;18.09;56.67
80837;BME280;70251;60.008;30.404;2023-08-24T00:40:08;100856.53;;;18.12;56.60
80837;BME280;70251;60.008;30.404;2023-08-24T00:42:41;100849.75;;;18.16;57.00
80837;BME280;70251;60.008;30.404;2023-08-24T00:45:09;100849.38;;;18.19;56.81
80837;BME280;70251;60.008;30.404;2023-08-24T00:47:36;100843.16;;;18.18;56.64
80837;BME280;70251;60.008;30.404;2023-08-24T00:50:03;100848.25;;;18.13;56.62
80837;BME280;70251;60.008;30.404;2023-08-24T00:52:31;100853.84;;;18.12;56.69
80837;BME280;70251;60.008;30.404;2023-08-24T00:54:58;100848.78;;;18.09;56.94
80837;BME280;70251;60.008;30.404;2023-08-24T00:57:26;100854.19;;;18.09;56.86
80837;BME280;70251;60.008;30.404;2023-08-24T00:59:52;100858.38;;;18.11;56.97
80837;BME280;70251;60.008;30.404;2023-08-24T01:02:18;100856.66;;;18.18;56.83
80837;BME280;70251;60.008;30.404;2023-08-24T01:04:46;100852.56;;;18.22;57.06
80837;BME280;70251;60.008;30.404;2023-08-24T01:07:12;100851.06;;;18.20;56.87
80837;BME280;70251;60.008;30.404;2023-08-24T01:09:39;100861.53;;;18.23;56.86
80837;BME280;70251;60.008;30.404;2023-08-24T01:14:55;100862.53;;;18.22;56.90
80837;BME280;70251;60.008;30.404;2023-08-24T01:17:26;100844.63;;;18.21;56.89
80837;BME280;70251;60.008;30.404;2023-08-24T01:19:54;100853.09;;;18.18;56.82
80837;BME280;70251;60.008;30.404;2023-08-24T01:22:33;100852.56;;;18.22;56.99
80837;BME280;70251;60.008;30.404;2023-08-24T01:27:35;100852.91;;;18.19;56.94
80837;BME280;70251;60.008;30.404;2023-08-24T01:30:05;100849.22;;;18.20;57.16
80837;BME280;70251;60.008;30.404;2023-08-24T01:32:35;100849.22;;;18.20;57.06
80837;BME280;70251;60.008;30.404;2023-08-24T01:35:06;100844.16;;;18.17;57.20
80837;BME280;70251;60.008;30.404;2023-08-24T01:37:34;100837.09;;;18.16;57.14
80837;BME280;70251;60.008;30.404;2023-08-24T01:40:05;100836.25;;;18.16;56.95
80837;BME280;70251;60.008;30.404;2023-08-24T01:42:40;100843.69;;;18.14;56.96
80837;BME280;70251;60.008;30.404;2023-08-24T01:45:09;100848.31;;;18.05;57.22
80837;BME280;70251;60.008;30.404;2023-08-24T01:47:36;100845.59;;;18.05;57.20
80837;BME280;70251;60.008;30.404;2023-08-24T01:50:03;100839.72;;;18.02;57.26
80837;BME280;70251;60.008;30.404;2023-08-24T01:52:30;100843.91;;;18.04;57.44
80837;BME280;70251;60.008;30.404;2023-08-24T01:54:56;100844.75;;;18.05;57.14
80837;BME280;70251;60.008;30.404;2023-08-24T01:57:22;100849.81;;;18.08;57.17
80837;BME280;70251;60.008;30.404;2023-08-24T01:59:47;100852.31;;;18.09;57.28
80837;BME280;70251;60.008;30.404;2023-08-24T02:02:13;100854.84;;;18.11;57.29
80837;BME280;70251;60.008;30.404;2023-08-24T02:04:38;100853.53;;;18.07;57.51
80837;BME280;70251;60.008;30.404;2023-08-24T02:07:04;100854.38;;;18.07;57.24
80837;BME280;70251;60.008;30.404;2023-08-24T02:09:30;100850.28;;;18.11;57.24
80837;BME280;70251;60.008;30.404;2023-08-24T02:11:56;100855.34;;;18.14;57.27
80837;BME280;70251;60.008;30.404;2023-08-24T02:14:22;100853.66;;;18.13;57.42
80837;BME280;70251;60.008;30.404;2023-08-24T02:16:47;100853.19;;;18.10;57.21
80837;BME280;70251;60.008;30.404;2023-08-24T02:19:13;100853.72;;;18.05;57.15
80837;BME280;70251;60.008;30.404;2023-08-24T02:21:39;100854.72;;;18.04;57.25
80837;BME280;70251;60.008;30.404;2023-08-24T02:24:05;100850.88;;;17.99;57.22
80837;BME280;70251;60.008;30.404;2023-08-24T02:26:31;100858.13;;;17.98;56.96
80837;BME280;70251;60.008;30.404;2023-08-24T02:28:57;100856.81;;;17.94;57.07
80837;BME280;70251;60.008;30.404;2023-08-24T02:31:22;100854.97;;;17.95;57.59
80837;BME280;70251;60.008;30.404;2023-08-24T02:33:48;100850.22;;;17.97;57.22
80837;BME280;70251;60.008;30.404;2023-08-24T02:36:14;100860.00;;;17.98;57.15
80837;BME280;70251;60.008;30.404;2023-08-24T02:38:40;100852.94;;;17.97;57.25
80837;BME280;70251;60.008;30.404;2023-08-24T02:41:07;100852.56;;;18.00;57.53
80837;BME280;70251;60.008;30.404;2023-08-24T02:43:33;100854.91;;;18.03;57.07
80837;BME280;70251;60.008;30.404;2023-08-24T02:46:03;100843.44;;;18.01;57.66
80837;BME280;70251;60.008;30.404;2023-08-24T02:48:30;100851.72;;;17.99;57.25
80837;BME280;70251;60.008;30.404;2023-08-24T02:51:00;100851.53;;;18.01;57.36
80837;BME280;70251;60.008;30.404;2023-08-24T02:53:26;100846.34;;;17.99;57.17
80837;BME280;70251;60.008;30.404;2023-08-24T02:55:53;100846.34;;;17.99;57.10
80837;BME280;70251;60.008;30.404;2023-08-24T02:58:19;100851.72;;;17.99;57.24
80837;BME280;70251;60.008;30.404;2023-08-24T03:00:45;100857.78;;;18.01;57.08
80837;BME280;70251;60.008;30.404;2023-08-24T03:03:14;100856.09;;;18.00;57.46
80837;BME280;70251;60.008;30.404;2023-08-24T03:05:40;100858.59;;;18.02;57.35
80837;BME280;70251;60.008;30.404;2023-08-24T03:08:05;100850.50;;;18.02;57.38
80837;BME280;70251;60.008;30.404;2023-08-24T03:10:35;100856.41;;;18.05;57.64
80837;BME280;70251;60.008;30.404;2023-08-24T03:13:00;100858.91;;;18.07;57.41
80837;BME280;70251;60.008;30.404;2023-08-24T03:15:26;100859.59;;;18.09;57.25
80837;BME280;70251;60.008;30.404;2023-08-24T03:17:51;100848.13;;;18.07;57.50
80837;BME280;70251;60.008;30.404;2023-08-24T03:20:18;100850.81;;;18.07;57.32
80837;BME280;70251;60.008;30.404;2023-08-24T03:22:44;100848.78;;;18.09;57.40
80837;BME280;70251;60.008;30.404;2023-08-24T03:25:10;100850.47;;;18.10;57.39
80837;BME280;70251;60.008;30.404;2023-08-24T03:27:37;100856.00;;;18.16;57.40
80837;BME280;70251;60.008;30.404;2023-08-24T03:30:04;100855.81;;;18.18;57.27
80837;BME280;70251;60.008;30.404;2023-08-24T03:32:30;100858.13;;;18.21;57.37
80837;BME280;70251;60.008;30.404;2023-08-24T03:34:59;100865.22;;;18.22;57.37
80837;BME280;70251;60.008;30.404;2023-08-24T03:37:25;100866.06;;;18.22;57.15
80837;BME280;70251;60.008;30.404;2023-08-24T03:39:51;100859.47;;;18.25;57.49
80837;BME280;70251;60.008;30.404;2023-08-24T03:42:16;100862.19;;;18.25;57.49
80837;BME280;70251;60.008;30.404;2023-08-24T03:44:42;100860.13;;;18.27;57.34
80837;BME280;70251;60.008;30.404;2023-08-24T03:47:07;100860.78;;;18.29;57.37
80837;BME280;70251;60.008;30.404;2023-08-24T03:49:34;100859.28;;;18.26;57.27
80837;BME280;70251;60.008;30.404;2023-08-24T03:52:00;100868.25;;;18.27;57.42
80837;BME280;70251;60.008;30.404;2023-08-24T03:54:25;100866.34;;;18.27;57.51
80837;BME280;70251;60.008;30.404;2023-08-24T03:56:51;100867.59;;;18.25;57.38
80837;BME280;70251;60.008;30.404;2023-08-24T03:59:17;100863.97;;;18.10;57.25
80837;BME280;70251;60.008;30.404;2023-08-24T04:01:42;100868.34;;;17.88;57.22
80837;BME280;70251;60.008;30.404;2023-08-24T04:04:08;100865.94;;;17.62;57.65
80837;BME280;70251;60.008;30.404;2023-08-24T04:06:33;100872.78;;;17.34;58.17
80837;BME280;70251;60.008;30.404;2023-08-24T04:08:59;100865.75;;;17.17;58.53
80837;BME280;70251;60.008;30.404;2023-08-24T04:11:25;100864.47;;;16.97;58.73
80837;BME280;70251;60.008;30.404;2023-08-24T04:13:50;100871.72;;;16.88;59.07
80837;BME280;70251;60.008;30.404;2023-08-24T04:16:16;100867.53;;;16.78;59.38
80837;BME280;70251;60.008;30.404;2023-08-24T04:18:42;100882.88;;;16.69;59.69
80837;BME280;70251;60.008;30.404;2023-08-24T04:21:07;100871.56;;;16.66;59.78
80837;BME280;70251;60.008;30.404;2023-08-24T04:23:33;100872.09;;;16.61;59.73
80837;BME280;70251;60.008;30.404;2023-08-24T04:25:58;100872.94;;;16.62;59.87
80837;BME280;70251;60.008;30.404;2023-08-24T04:28:24;100872.09;;;16.61;59.86
80837;BME280;70251;60.008;30.404;2023-08-24T04:30:54;100874.13;;;16.67;60.31
80837;BME280;70251;60.008;30.404;2023-08-24T04:33:21;100881.34;;;16.67;60.04
80837;BME280;70251;60.008;30.404;2023-08-24T04:35:50;100874.94;;;16.68;60.04
80837;BME280;70251;60.008;30.404;2023-08-24T04:38:16;100885.88;;;16.74;60.04
80837;BME280;70251;60.008;30.404;2023-08-24T04:40:49;100885.03;;;16.74;60.51
80837;BME280;70251;60.008;30.404;2023-08-24T04:43:17;100887.91;;;16.80;60.39
80837;BME280;70251;60.008;30.404;2023-08-24T04:45:43;100881.66;;;16.88;60.31
80837;BME280;70251;60.008;30.404;2023-08-24T04:48:10;100875.41;;;17.03;60.58
80837;BME280;70251;60.008;30.404;2023-08-24T04:50:36;100862.06;;;17.10;60.44
80837;BME280;70251;60.008;30.404;2023-08-24T04:53:01;100878.69;;;17.30;60.58
80837;BME280;70251;60.008;30.404;2023-08-24T04:55:27;100869.56;;;17.39;60.31
80837;BME280;70251;60.008;30.404;2023-08-24T04:57:53;100875.94;;;17.54;59.86
80837;BME280;70251;60.008;30.404;2023-08-24T05:00:18;100872.00;;;17.64;60.06
80837;BME280;70251;60.008;30.404;2023-08-24T05:02:44;100873.28;;;17.76;59.93
80837;BME280;70251;60.008;30.404;2023-08-24T05:05:10;100869.06;;;17.82;60.07
80837;BME280;70251;60.008;30.404;2023-08-24T05:07:37;100865.75;;;17.95;59.63
80837;BME280;70251;60.008;30.404;2023-08-24T05:10:04;100863.72;;;17.97;59.35
80837;BME280;70251;60.008;30.404;2023-08-24T05:12:30;100863.19;;;18.01;59.36
80837;BME280;70251;60.008;30.404;2023-08-24T05:14:56;100874.81;;;18.02;59.41
80837;BME280;70251;60.008;30.404;2023-08-24T05:17:21;100861.81;;;18.05;59.29
80837;BME280;70251;60.008;30.404;2023-08-24T05:19:54;100855.56;;;18.05;59.17
80837;BME280;70251;60.008;30.404;2023-08-24T05:22:19;100854.25;;;18.01;59.03
80837;BME280;70251;60.008;30.404;2023-08-24T05:24:46;100857.47;;;17.96;59.09
80837;BME280;70251;60.008;30.404;2023-08-24T05:27:11;100858.00;;;17.92;59.31
80837;BME280;70251;60.008;30.404;2023-08-24T05:29:37;100852.59;;;17.92;59.47
80837;BME280;70251;60.008;30.404;2023-08-24T05:32:03;100853.28;;;17.94;59.11
80837;BME280;70251;60.008;30.404;2023-08-24T05:34:29;100854.13;;;17.94;59.10
80837;BME280;70251;60.008;30.404;2023-08-24T05:36:54;100845.16;;;17.94;59.07
80837;BME280;70251;60.008;30.404;2023-08-24T05:39:20;100847.88;;;17.94;58.79
80837;BME280;70251;60.008;30.404;2023-08-24T05:41:45;100845.69;;;17.97;58.78
80837;BME280;70251;60.008;30.404;2023-08-24T05:44:14;100847.53;;;17.97;58.42
80837;BME280;70251;60.008;30.404;2023-08-24T05:46:42;100849.63;;;17.87;57.86
80837;BME280;70251;60.008;30.404;2023-08-24T05:49:07;100857.75;;;17.78;57.80
80837;BME280;70251;60.008;30.404;2023-08-24T05:51:33;100847.84;;;17.71;57.80
80837;BME280;70251;60.008;30.404;2023-08-24T05:53:59;100853.59;;;17.68;57.80
80837;BME280;70251;60.008;30.404;2023-08-24T05:56:25;100856.94;;;17.70;58.35
80837;BME280;70251;60.008;30.404;2023-08-24T05:58:51;100855.56;;;17.82;58.30
80837;BME280;70251;60.008;30.404;2023-08-24T06:01:16;100855.81;;;17.95;57.76
80837;BME280;70251;60.008;30.404;2023-08-24T06:03:42;100844.56;;;18.06;58.44
80837;BME280;70251;60.008;30.404;2023-08-24T06:06:07;100858.50;;;18.18;57.86
80837;BME280;70251;60.008;30.404;2023-08-24T06:08:34;100859.09;;;18.28;57.59
80837;BME280;70251;60.008;30.404;2023-08-24T06:11:00;100856.06;;;18.31;57.44
80837;BME280;70251;60.008;30.404;2023-08-24T06:13:26;100864.81;;;18.33;57.07
80837;BME280;70251;60.008;30.404;2023-08-24T06:15:52;100849.25;;;18.35;57.00
80837;BME280;70251;60.008;30.404;2023-08-24T06:18:18;100862.03;;;18.41;56.66
80837;BME280;70251;60.008;30.404;2023-08-24T06:20:43;100853.94;;;18.41;56.51
80837;BME280;70251;60.008;30.404;2023-08-24T06:23:09;100851.88;;;18.43;56.17
80837;BME280;70251;60.008;30.404;2023-08-24T06:25:35;100853.94;;;18.41;56.03
80837;BME280;70251;60.008;30.404;2023-08-24T06:28:01;100849.19;;;18.43;56.00
80837;BME280;70251;60.008;30.404;2023-08-24T06:30:29;100857.63;;;18.48;55.67
80837;BME280;70251;60.008;30.404;2023-08-24T06:32:58;100862.00;;;18.49;55.48
80837;BME280;70251;60.008;30.404;2023-08-24T06:35:25;100875.50;;;18.49;55.09
80837;BME280;70251;60.008;30.404;2023-08-24T06:37:50;100862.97;;;18.33;54.70
80837;BME280;70251;60.008;30.404;2023-08-24T06:40:16;100865.81;;;18.32;54.78
80837;BME280;70251;60.008;30.404;2023-08-24T06:42:43;100864.22;;;18.23;54.72
80837;BME280;70251;60.008;30.404;2023-08-24T06:45:08;100862.53;;;18.22;54.84
80837;BME280;70251;60.008;30.404;2023-08-24T06:47:36;100863.50;;;18.29;54.97
80837;BME280;70251;60.008;30.404;2023-08-24T06:50:02;100866.84;;;18.31;53.96
80837;BME280;70251;60.008;30.404;2023-08-24T06:52:29;100861.56;;;18.37;54.50
80837;BME280;70251;60.008;30.404;2023-08-24T06:54:54;100849.72;;;18.38;54.38
80837;BME280;70251;60.008;30.404;2023-08-24T06:57:22;100860.13;;;18.49;54.14
80837;BME280;70251;60.008;30.404;2023-08-24T06:59:47;100848.78;;;18.54;54.09
80837;BME280;70251;60.008;30.404;2023-08-24T07:02:13;100858.78;;;18.68;53.72
80837;BME280;70251;60.008;30.404;2023-08-24T07:04:40;100863.19;;;18.69;53.79
80837;BME280;70251;60.008;30.404;2023-08-24T07:07:06;100850.88;;;18.67;53.74
80837;BME280;70251;60.008;30.404;2023-08-24T07:09:32;100865.16;;;18.75;53.78
80837;BME280;70251;60.008;30.404;2023-08-24T07:11:57;100866.53;;;18.71;53.29
80837;BME280;70251;60.008;30.404;2023-08-24T07:14:23;100871.44;;;18.68;53.53
80837;BME280;70251;60.008;30.404;2023-08-24T07:16:49;100872.84;;;18.64;53.57
80837;BME280;70251;60.008;30.404;2023-08-24T07:19:14;100869.97;;;18.65;53.81
80837;BME280;70251;60.008;30.404;2023-08-24T07:21:40;100875.50;;;18.72;53.73
80837;BME280;70251;60.008;30.404;2023-08-24T07:24:06;100879.97;;;18.79;53.93
80837;BME280;70251;60.008;30.404;2023-08-24T07:26:31;100875.22;;;18.81;53.55
80837;BME280;70251;60.008;30.404;2023-08-24T07:28:57;100879.41;;;18.84;53.79
80837;BME280;70251;60.008;30.404;2023-08-24T07:31:23;100875.78;;;18.91;53.83
80837;BME280;70251;60.008;30.404;2023-08-24T07:33:48;100876.09;;;18.96;53.82
80837;BME280;70251;60.008;30.404;2023-08-24T07:36:14;100880.00;;;19.08;53.68
80837;BME280;70251;60.008;30.404;2023-08-24T07:38:39;100879.44;;;19.13;53.87
80837;BME280;70251;60.008;30.404;2023-08-24T07:41:05;100874.88;;;19.13;53.46
80837;BME280;70251;60.008;30.404;2023-08-24T07:43:32;100883.00;;;19.13;53.80
80837;BME280;70251;60.008;30.404;2023-08-24T07:46:12;100880.19;;;19.07;53.96
80837;BME280;70251;60.008;30.404;2023-08-24T07:48:39;100891.47;;;19.10;53.85
80837;BME280;70251;60.008;30.404;2023-08-24T07:51:05;100886.91;;;19.11;53.88
80837;BME280;70251;60.008;30.404;2023-08-24T07:53:32;100894.81;;;19.12;53.79
80837;BME280;70251;60.008;30.404;2023-08-24T07:55:59;100891.84;;;19.07;54.23
80837;BME280;70251;60.008;30.404;2023-08-24T07:58:25;100885.69;;;19.13;54.21
80837;BME280;70251;60.008;30.404;2023-08-24T08:00:50;100892.06;;;19.20;54.01
80837;BME280;70251;60.008;30.404;2023-08-24T08:03:19;100898.50;;;19.34;54.02
80837;BME280;70251;60.008;30.404;2023-08-24T08:05:46;100902.34;;;19.40;54.34
80837;BME280;70251;60.008;30.404;2023-08-24T08:08:16;100891.63;;;19.46;53.86
80837;BME280;70251;60.008;30.404;2023-08-24T08:10:42;100896.72;;;19.56;53.91
80837;BME280;70251;60.008;30.404;2023-08-24T08:13:08;100899.81;;;19.67;53.52
80837;BME280;70251;60.008;30.404;2023-08-24T08:15:36;100901.19;;;19.78;53.44
80837;BME280;70251;60.008;30.404;2023-08-24T08:18:04;100881.19;;;19.79;53.37
80837;BME280;70251;60.008;30.404;2023-08-24T08:20:30;100891.91;;;19.87;53.51
80837;BME280;70251;60.008;30.404;2023-08-24T08:22:56;100892.00;;;19.93;53.49
80837;BME280;70251;60.008;30.404;2023-08-24T08:25:22;100900.84;;;20.02;53.45
80837;BME280;70251;60.008;30.404;2023-08-24T08:27:49;100891.56;;;20.11;53.17
80837;BME280;70251;60.008;30.404;2023-08-24T08:30:14;100887.44;;;20.15;53.23
80837;BME280;70251;60.008;30.404;2023-08-24T08:32:41;100884.56;;;20.17;52.99
80837;BME280;70251;60.008;30.404;2023-08-24T08:35:11;100880.53;;;20.12;52.81
80837;BME280;70251;60.008;30.404;2023-08-24T08:37:36;100877.66;;;20.14;52.58
80837;BME280;70251;60.008;30.404;2023-08-24T08:40:09;100881.75;;;20.25;52.85
80837;BME280;70251;60.008;30.404;2023-08-24T08:42:35;100877.19;;;20.25;52.77
80837;BME280;70251;60.008;30.404;2023-08-24T08:45:04;100879.63;;;20.20;52.42
80837;BME280;70251;60.008;30.404;2023-08-24T08:47:33;100880.38;;;20.14;52.81
80837;BME280;70251;60.008;30.404;2023-08-24T08:50:01;100876.16;;;20.11;52.65
80837;BME280;70251;60.008;30.404;2023-08-24T08:52:31;100885.72;;;20.07;52.40
80837;BME280;70251;60.008;30.404;2023-08-24T08:54:58;100879.94;;;19.96;52.70
80837;BME280;70251;60.008;30.404;2023-08-24T08:57:25;100888.34;;;20.01;52.63
80837;BME280;70251;60.008;30.404;2023-08-24T08:59:52;100884.59;;;20.02;52.37
80837;BME280;70251;60.008;30.404;2023-08-24T09:02:19;100871.31;;;20.07;52.59
80837;BME280;70251;60.008;30.404;2023-08-24T09:04:47;100873.81;;;20.23;52.32
80837;BME280;70251;60.008;30.404;2023-08-24T09:07:13;100873.56;;;20.39;51.97
80837;BME280;70251;60.008;30.404;2023-08-24T09:09:39;100875.16;;;20.55;51.72
80837;BME280;70251;60.008;30.404;2023-08-24T09:12:06;100864.25;;;20.69;51.51
80837;BME280;70251;60.008;30.404;2023-08-24T09:14:33;100866.66;;;20.85;51.17
80837;BME280;70251;60.008;30.404;2023-08-24T09:16:58;100874.63;;;20.94;51.23
80837;BME280;70251;60.008;30.404;2023-08-24T09:19:28;100862.78;;;21.01;51.23
80837;BME280;70251;60.008;30.404;2023-08-24T09:21:58;100861.19;;;21.07;50.85
80837;BME280;70251;60.008;30.404;2023-08-24T09:24:34;100860.81;;;21.10;50.54
80837;BME280;70251;60.008;30.404;2023-08-24T09:27:15;100853.31;;;21.12;50.29
80837;BME280;70251;60.008;30.404;2023-08-24T09:29:42;100851.06;;;20.94;49.69
80837;BME280;70251;60.008;30.404;2023-08-24T09:32:08;100857.81;;;20.77;49.79
80837;BME280;70251;60.008;30.404;2023-08-24T09:34:36;100863.81;;;20.72;50.08
80837;BME280;70251;60.008;30.404;2023-08-24T09:37:02;100863.88;;;20.79;50.55
80837;BME280;70251;60.008;30.404;2023-08-24T09:39:30;100858.03;;;20.75;50.22
80837;BME280;70251;60.008;30.404;2023-08-24T09:42:00;100841.91;;;20.95;49.84
80837;BME280;70251;60.008;30.404;2023-08-24T09:44:28;100855.91;;;21.33;49.95
80837;BME280;70251;60.008;30.404;2023-08-24T09:46:55;100843.94;;;21.68;49.98
80837;BME280;70251;60.008;30.404;2023-08-24T09:49:21;100846.78;;;21.94;49.36
80837;BME280;70251;60.008;30.404;2023-08-24T09:51:47;100841.63;;;22.12;48.67
80837;BME280;70251;60.008;30.404;2023-08-24T09:54:15;100845.63;;;22.29;48.61
80837;BME280;70251;60.008;30.404;2023-08-24T09:56:42;100853.34;;;22.32;48.08
80837;BME280;70251;60.008;30.404;2023-08-24T09:59:13;100842.47;;;22.32;47.85
80837;BME280;70251;60.008;30.404;2023-08-24T10:01:46;100838.09;;;22.31;48.27
80837;BME280;70251;60.008;30.404;2023-08-24T10:04:28;100840.19;;;22.29;47.94
80837;BME280;70251;60.008;30.404;2023-08-24T10:07:04;100838.25;;;22.17;47.71
80837;BME280;70251;60.008;30.404;2023-08-24T10:09:44;100844.97;;;22.08;48.37
80837;BME280;70251;60.008;30.404;2023-08-24T10:12:11;100837.41;;;22.03;48.52
80837;BME280;70251;60.008;30.404;2023-08-24T10:17:17;100839.50;;;22.01;48.47
80837;BME280;70251;60.008;30.404;2023-08-24T10:19:43;100828.63;;;22.01;48.77
80837;BME280;70251;60.008;30.404;2023-08-24T10:22:10;100826.75;;;22.15;48.76
80837;BME280;70251;60.008;30.404;2023-08-24T10:24:36;100833.31;;;22.60;48.65
80837;BME280;70251;60.008;30.404;2023-08-24T10:27:02;100829.47;;;23.13;48.09
80837;BME280;70251;60.008;30.404;2023-08-24T10:29:29;100824.03;;;23.70;47.25
80837;BME280;70251;60.008;30.404;2023-08-24T10:31:56;100826.75;;;24.15;46.76
80837;BME280;70251;60.008;30.404;2023-08-24T10:34:22;100826.44;;;24.54;46.18
80837;BME280;70251;60.008;30.404;2023-08-24T10:36:48;100825.72;;;24.90;45.39
80837;BME280;70251;60.008;30.404;2023-08-24T10:39:27;100814.75;;;25.14;44.41
80837;BME280;70251;60.008;30.404;2023-08-24T10:41:53;100816.94;;;25.24;44.80
80837;BME280;70251;60.008;30.404;2023-08-24T10:44:24;100812.38;;;25.43;44.23
80837;BME280;70251;60.008;30.404;2023-08-24T10:49:32;100800.63;;;25.72;43.96
80837;BME280;70251;60.008;30.404;2023-08-24T10:51:58;100807.09;;;25.89;43.45
80837;BME280;70251;60.008;30.404;2023-08-24T10:54:44;100804.13;;;26.20;42.91
80837;BME280;70251;60.008;30.404;2023-08-24T10:57:18;100806.53;;;26.28;42.89
80837;BME280;70251;60.008;30.404;2023-08-24T10:59:45;100807.94;;;25.89;42.85
80837;BME280;70251;60.008;30.404;2023-08-24T11:02:18;100806.41;;;25.93;42.60
80837;BME280;70251;60.008;30.404;2023-08-24T11:05:20;100802.78;;;26.11;43.26
80837;BME280;70251;60.008;30.404;2023-08-24T11:08:03;100803.28;;;26.08;42.76
80837;BME280;70251;60.008;30.404;2023-08-24T11:13:12;100809.66;;;25.72;42.56
80837;BME280;70251;60.008;30.404;2023-08-24T11:15:46;100806.53;;;25.69;41.77
80837;BME280;70251;60.008;30.404;2023-08-24T11:20:45;100792.75;;;25.93;41.76
80837;BME280;70251;60.008;30.404;2023-08-24T11:23:11;100797.31;;;26.11;41.56
80837;BME280;70251;60.008;30.404;2023-08-24T11:25:38;100787.97;;;26.30;41.13
80837;BME280;70251;60.008;30.404;2023-08-24T11:28:04;100788.91;;;26.24;41.30
80837;BME280;70251;60.008;30.404;2023-08-24T11:30:34;100784.53;;;26.35;41.00
80837;BME280;70251;60.008;30.404;2023-08-24T11:33:00;100791.84;;;26.64;41.23
80837;BME280;70251;60.008;30.404;2023-08-24T11:35:27;100789.13;;;26.87;40.56
80837;BME280;70251;60.008;30.404;2023-08-24T11:37:53;100786.94;;;27.12;39.76
80837;BME280;70251;60.008;30.404;2023-08-24T11:40:20;100792.38;;;27.24;39.89
80837;BME280;70251;60.008;30.404;2023-08-24T11:42:46;100784.09;;;27.07;39.77
80837;BME280;70251;60.008;30.404;2023-08-24T11:45:12;100782.28;;;26.66;39.48
80837;BME280;70251;60.008;30.404;2023-08-24T11:47:42;100787.50;;;26.33;39.93
80837;BME280;70251;60.008;30.404;2023-08-24T11:50:08;100786.34;;;26.52;40.14
80837;BME280;70251;60.008;30.404;2023-08-24T11:52:41;100786.34;;;26.99;39.39
80837;BME280;70251;60.008;30.404;2023-08-24T11:55:07;100778.78;;;27.29;39.29
80837;BME280;70251;60.008;30.404;2023-08-24T11:57:36;100784.63;;;27.44;38.70
80837;BME280;70251;60.008;30.404;2023-08-24T12:00:03;100776.97;;;27.57;38.08
80837;BME280;70251;60.008;30.404;2023-08-24T12:02:32;100770.06;;;27.55;37.78
80837;BME280;70251;60.008;30.404;2023-08-24T12:04:59;100770.31;;;27.53;37.72
80837;BME280;70251;60.008;30.404;2023-08-24T12:07:25;100770.00;;;27.66;37.76
80837;BME280;70251;60.008;30.404;2023-08-24T12:09:54;100779.41;;;27.71;37.86
80837;BME280;70251;60.008;30.404;2023-08-24T12:12:20;100775.59;;;27.32;37.73
80837;BME280;70251;60.008;30.404;2023-08-24T12:14:47;100774.97;;;27.41;37.62
80837;BME280;70251;60.008;30.404;2023-08-24T12:17:14;100765.19;;;27.74;37.82
80837;BME280;70251;60.008;30.404;2023-08-24T12:19:44;100765.78;;;28.04;37.89
80837;BME280;70251;60.008;30.404;2023-08-24T12:22:16;100763.47;;;28.12;37.51
80837;BME280;70251;60.008;30.404;2023-08-24T12:24:45;100764.22;;;28.24;36.65
80837;BME280;70251;60.008;30.404;2023-08-24T12:29:49;100760.88;;;28.22;36.92
80837;BME280;70251;60.008;30.404;2023-08-24T12:32:16;100755.75;;;28.26;36.85
80837;BME280;70251;60.008;30.404;2023-08-24T12:34:42;100752.81;;;28.32;37.31
80837;BME280;70251;60.008;30.404;2023-08-24T12:37:10;100745.50;;;28.38;37.03
80837;BME280;70251;60.008;30.404;2023-08-24T12:39:37;100740.25;;;28.53;36.98
80837;BME280;70251;60.008;30.404;2023-08-24T12:42:03;100753.72;;;28.71;36.57
80837;BME280;70251;60.008;30.404;2023-08-24T12:44:29;100742.56;;;28.78;36.72
80837;BME280;70251;60.008;30.404;2023-08-24T12:46:55;100745.97;;;28.85;36.84
80837;BME280;70251;60.008;30.404;2023-08-24T12:49:20;100741.91;;;28.87;36.55
80837;BME280;70251;60.008;30.404;2023-08-24T12:51:46;100740.97;;;28.82;36.48
80837;BME280;70251;60.008;30.404;2023-08-24T12:54:13;100743.94;;;28.59;35.91
80837;BME280;70251;60.008;30.404;2023-08-24T12:56:41;100746.50;;;28.49;35.86
80837;BME280;70251;60.008;30.404;2023-08-24T12:59:08;100741.34;;;28.35;35.97